createdAt,value
2022-10-07T00:01:15.701Z,101406.25
2022-10-07T00:03:43.999Z,101404.53
2022-10-07T00:06:14.692Z,101425.44
2022-10-07T00:08:46.717Z,101404.63
2022-10-07T00:11:17.432Z,101403.81
2022-10-07T00:13:47.093Z,101406.41
2022-10-07T00:16:20.193Z,101406.41
2022-10-07T00:18:49.203Z,101406.41
2022-10-07T00:21:19.278Z,101394.34
2022-10-07T00:23:49.558Z,101391.72
2022-10-07T00:26:20.618Z,101389.09
2022-10-07T00:28:50.341Z,101390.88
2022-10-07T00:31:21.480Z,101384.03
2022-10-07T00:33:51.070Z,101379.69
2022-10-07T00:36:23.548Z,101378.94
2022-10-07T00:38:56.634Z,101375.53
2022-10-07T00:41:27.602Z,101372.19
2022-10-07T00:43:56.585Z,101377.50
2022-10-07T00:46:32.369Z,101372.28
2022-10-07T00:49:04.291Z,101369.66
2022-10-07T00:51:34.860Z,101363.69
2022-10-07T00:54:08.550Z,101358.50
2022-10-07T00:56:36.950Z,101364.63
2022-10-07T00:59:05.495Z,101362.94
2022-10-07T01:01:34.833Z,101365.56
2022-10-07T01:04:05.179Z,101356.88
2022-10-07T01:06:33.638Z,101351.66
2022-10-07T01:09:01.981Z,101350.81
2022-10-07T01:11:41.430Z,101346.56
2022-10-07T01:14:13.378Z,101344.94
2022-10-07T01:16:54.986Z,101335.31
2022-10-07T01:20:03.823Z,101334.47
2022-10-07T01:22:42.488Z,101330.97
2022-10-07T01:25:33.154Z,101331.03
2022-10-07T01:28:08.233Z,101321.50
2022-10-07T01:30:41.917Z,101318.88
2022-10-07T01:33:15.754Z,101318.03
2022-10-07T01:35:47.955Z,101315.44
2022-10-07T01:38:20.894Z,101317.16
2022-10-07T01:40:55.273Z,101310.06
2022-10-07T01:43:25.193Z,101311.69
2022-10-07T01:45:55.801Z,101306.47
2022-10-07T01:48:24.176Z,101297.72
2022-10-07T01:50:53.970Z,101302.97
2022-10-07T01:53:41.488Z,101297.72
2022-10-07T01:56:27.209Z,101288.06
2022-10-07T01:59:14.108Z,101282.84
2022-10-07T02:01:47.962Z,101276.81
2022-10-07T02:04:32.315Z,101279.44
2022-10-07T02:07:15.885Z,101276.81
2022-10-07T02:09:50.383Z,101276.81
2022-10-07T02:12:24.718Z,101268.06
2022-10-07T02:15:02.594Z,101266.34
2022-10-07T02:17:35.170Z,101261.13
2022-10-07T02:20:09.035Z,101266.34
2022-10-07T02:22:39.542Z,101267.16
2022-10-07T02:25:10.303Z,101257.53
2022-10-07T02:27:40.665Z,101266.22
2022-10-07T02:30:14.611Z,101258.28
2022-10-07T02:32:49.777Z,101260.81
2022-10-07T02:35:25.247Z,101255.56
2022-10-07T02:37:56.897Z,101248.56
2022-10-07T02:40:33.308Z,101252.03
2022-10-07T02:43:06.119Z,101242.44
2022-10-07T02:45:45.264Z,101238.94
2022-10-07T02:48:20.568Z,101239.88
2022-10-07T02:50:52.925Z,101241.56
2022-10-07T02:53:23.198Z,101237.22
2022-10-07T02:55:53.694Z,101235.50
2022-10-07T02:58:25.537Z,101230.28
2022-10-07T03:00:59.632Z,101225.03
2022-10-07T03:03:30.346Z,101225.03
2022-10-07T03:06:02.882Z,101218.84
2022-10-07T03:08:33.062Z,101218.84
2022-10-07T03:11:02.268Z,101215.25
2022-10-07T03:13:32.140Z,101216.97
2022-10-07T03:16:05.444Z,101224.81
2022-10-07T03:18:34.451Z,101216.00
2022-10-07T03:21:25.069Z,101216.00
2022-10-07T03:23:56.375Z,101207.25
2022-10-07T03:26:30.257Z,101209.00
2022-10-07T03:28:59.554Z,101196.72
2022-10-07T03:31:30.001Z,101204.56
2022-10-07T03:34:01.043Z,101199.28
2022-10-07T03:36:29.830Z,101198.41
2022-10-07T03:38:58.746Z,101195.69
2022-10-07T03:41:27.509Z,101195.69
2022-10-07T03:43:59.226Z,101192.09
2022-10-07T03:46:30.221Z,101196.34
2022-10-07T03:48:58.631Z,101189.25
2022-10-07T03:51:27.854Z,101189.19
2022-10-07T03:53:57.458Z,101198.69
2022-10-07T03:56:28.397Z,101195.91
2022-10-07T03:58:56.766Z,101192.34
2022-10-07T04:01:26.951Z,101198.34
2022-10-07T04:04:01.111Z,101197.22
2022-10-07T04:06:32.975Z,101194.56
2022-10-07T04:09:05.236Z,101190.09
2022-10-07T04:11:33.574Z,101184.72
2022-10-07T04:14:02.122Z,101174.97
2022-10-07T04:16:37.745Z,101183.56
2022-10-07T04:19:13.503Z,101181.78
2022-10-07T04:21:42.814Z,101181.69
2022-10-07T04:24:11.227Z,101179.03
2022-10-07T04:26:39.520Z,101173.72
2022-10-07T04:29:07.835Z,101175.34
2022-10-07T04:31:37.396Z,101181.31
2022-10-07T04:34:06.763Z,101169.91
2022-10-07T04:36:40.898Z,101173.28
2022-10-07T04:39:18.783Z,101167.13
2022-10-07T04:41:54.714Z,101164.47
2022-10-07T04:44:27.142Z,101161.84
2022-10-07T04:47:00.826Z,101163.53
2022-10-07T04:49:31.968Z,101164.38
2022-10-07T04:52:03.793Z,101160.88
2022-10-07T04:54:39.280Z,101166.00
2022-10-07T04:57:09.928Z,101159.00
2022-10-07T04:59:42.592Z,101159.81
2022-10-07T05:02:12.841Z,101158.03
2022-10-07T05:04:41.285Z,101155.41
2022-10-07T05:07:11.017Z,101148.31
2022-10-07T05:09:39.749Z,101152.66
2022-10-07T05:12:08.978Z,101157.88
2022-10-07T05:14:37.298Z,101149.06
2022-10-07T05:17:06.297Z,101145.47
2022-10-07T05:19:36.624Z,101142.81
2022-10-07T05:22:05.206Z,101144.50
2022-10-07T05:24:34.951Z,101142.72
2022-10-07T05:27:04.060Z,101144.34
2022-10-07T05:29:32.361Z,101138.16
2022-10-07T05:32:04.758Z,101141.59
2022-10-07T05:34:34.236Z,101135.41
2022-10-07T05:37:02.587Z,101140.53
2022-10-07T05:39:31.057Z,101137.84
2022-10-07T05:42:08.827Z,101135.25
2022-10-07T05:44:43.808Z,101139.47
2022-10-07T05:47:14.102Z,101135.00
2022-10-07T05:49:43.191Z,101132.31
2022-10-07T05:52:11.574Z,101132.31
2022-10-07T05:54:40.913Z,101131.34
2022-10-07T05:57:11.445Z,101128.75
2022-10-07T05:59:39.774Z,101114.72
2022-10-07T06:02:08.655Z,101118.13
2022-10-07T06:04:37.193Z,101119.94
2022-10-07T06:07:06.081Z,101122.47
2022-10-07T06:09:52.544Z,101118.13
2022-10-07T06:12:40.038Z,101121.56
2022-10-07T06:15:12.494Z,101119.94
2022-10-07T06:17:45.058Z,101120.81
2022-10-07T06:20:17.925Z,101118.31
2022-10-07T06:22:47.278Z,101114.88
2022-10-07T06:25:17.251Z,101108.03
2022-10-07T06:27:53.568Z,101110.69
2022-10-07T06:30:23.019Z,101111.75
2022-10-07T06:32:51.425Z,101107.56
2022-10-07T06:35:20.060Z,101108.63
2022-10-07T06:37:50.356Z,101119.22
2022-10-07T06:40:18.744Z,101110.75
2022-10-07T06:42:48.430Z,101110.88
2022-10-07T06:45:32.054Z,101105.81
2022-10-07T06:48:01.392Z,101105.94
2022-10-07T06:50:30.801Z,101107.91
2022-10-07T06:52:59.717Z,101115.06
2022-10-07T06:55:30.973Z,101112.59
2022-10-07T06:58:00.930Z,101113.63
2022-10-07T07:00:32.585Z,101113.88
2022-10-07T07:03:01.406Z,101118.44
2022-10-07T07:05:34.532Z,101120.28
2022-10-07T07:08:03.345Z,101116.25
2022-10-07T07:10:32.326Z,101120.81
2022-10-07T07:15:35.258Z,101114.31
2022-10-07T07:18:05.423Z,101117.16
2022-10-07T07:20:37.326Z,101116.44
2022-10-07T07:23:08.752Z,101115.78
2022-10-07T07:25:38.570Z,101109.03
2022-10-07T07:28:09.034Z,101117.09
2022-10-07T07:30:40.028Z,101110.38
2022-10-07T07:33:09.807Z,101101.91
2022-10-07T07:35:41.485Z,101101.31
2022-10-07T07:38:10.839Z,101098.09
2022-10-07T07:40:39.968Z,101104.41
2022-10-07T07:43:10.939Z,101101.16
2022-10-07T07:45:39.579Z,101100.53
2022-10-07T07:48:08.056Z,101101.66
2022-10-07T07:50:40.811Z,101101.84
2022-10-07T07:53:10.256Z,101107.38
2022-10-07T07:55:38.632Z,101099.78
2022-10-07T07:58:11.700Z,101104.38
2022-10-07T08:00:42.407Z,101095.03
2022-10-07T08:03:11.779Z,101097.09
2022-10-07T08:05:40.129Z,101090.34
2022-10-07T08:08:12.732Z,101093.16
2022-10-07T08:10:42.875Z,101089.09
2022-10-07T08:13:11.659Z,101098.13
2022-10-07T08:15:42.020Z,101102.75
2022-10-07T08:18:10.643Z,101100.34
2022-10-07T08:20:39.571Z,101098.78
2022-10-07T08:23:08.955Z,101094.72
2022-10-07T08:25:37.743Z,101084.47
2022-10-07T08:28:07.966Z,101089.09
2022-10-07T08:30:37.335Z,101082.44
2022-10-07T08:33:07.021Z,101087.91
2022-10-07T08:35:35.327Z,101089.06
2022-10-07T08:38:03.631Z,101086.72
2022-10-07T08:40:31.960Z,101082.63
2022-10-07T08:43:00.373Z,101085.50
2022-10-07T08:45:32.381Z,101084.00
2022-10-07T08:48:04.552Z,101085.16
2022-10-07T08:50:43.550Z,101068.75
2022-10-07T08:53:20.491Z,101067.25
2022-10-07T08:55:56.234Z,101069.22
2022-10-07T08:58:36.344Z,101067.78
2022-10-07T09:01:17.737Z,101052.28
2022-10-07T09:03:51.992Z,101056.97
2022-10-07T09:06:28.991Z,101052.84
2022-10-07T09:09:03.282Z,101053.16
2022-10-07T09:11:35.640Z,101049.03
2022-10-07T09:14:14.828Z,101050.16
2022-10-07T09:16:46.234Z,101046.09
2022-10-07T09:19:21.707Z,101047.25
2022-10-07T09:21:52.650Z,101034.38
2022-10-07T09:24:23.127Z,101033.75
2022-10-07T09:26:55.310Z,101039.19
2022-10-07T09:29:26.424Z,101026.31
2022-10-07T09:31:55.241Z,101025.75
2022-10-07T09:34:25.608Z,101023.28
2022-10-07T09:37:21.811Z,101027.09
2022-10-07T09:39:51.789Z,101010.66
2022-10-07T09:42:36.360Z,101010.94
2022-10-07T09:45:19.602Z,101011.19
2022-10-07T09:47:52.529Z,101021.13
2022-10-07T09:50:33.665Z,101007.41
2022-10-07T09:53:03.914Z,101001.47
2022-10-07T09:55:37.616Z,100999.94
2022-10-07T09:58:15.874Z,100996.66
2022-10-07T10:00:45.900Z,101007.47
2022-10-07T10:03:14.814Z,101005.94
2022-10-07T10:05:53.676Z,101004.38
2022-10-07T10:08:26.947Z,101001.13
2022-10-07T10:10:57.378Z,100998.72
2022-10-07T10:13:32.780Z,100998.03
2022-10-07T10:16:02.779Z,100995.59
2022-10-07T10:18:39.392Z,100981.75
2022-10-07T10:21:23.205Z,100985.44
2022-10-07T10:23:54.840Z,100974.16
2022-10-07T10:26:56.350Z,100970.88
2022-10-07T10:29:41.929Z,100966.69
2022-10-07T10:32:34.321Z,100963.38
2022-10-07T10:35:10.154Z,100957.44
2022-10-07T10:37:58.069Z,100961.13
2022-10-07T10:40:35.638Z,100954.31
2022-10-07T10:43:20.196Z,100950.97
2022-10-07T10:45:59.733Z,100938.81
2022-10-07T10:48:33.801Z,100946.03
2022-10-07T10:51:15.379Z,100932.91
2022-10-07T10:53:51.743Z,100936.63
2022-10-07T10:56:36.425Z,100926.22
2022-10-07T10:59:22.674Z,100923.78
2022-10-07T11:01:58.330Z,100919.59
2022-10-07T11:04:43.508Z,100917.09
2022-10-07T11:07:24.102Z,100909.31
2022-10-07T11:09:57.163Z,100901.53
2022-10-07T11:12:31.648Z,100907.91
2022-10-07T11:15:08.243Z,100901.84
2022-10-07T11:17:37.484Z,100893.22
2022-10-07T11:20:18.758Z,100889.88
2022-10-07T11:22:53.425Z,100879.47
2022-10-07T11:25:29.309Z,100872.53
2022-10-07T11:28:06.849Z,100879.75
2022-10-07T11:30:42.894Z,100865.81
2022-10-07T11:33:18.746Z,100867.63
2022-10-07T11:35:51.903Z,100859.75
2022-10-07T11:38:25.739Z,100860.63
2022-10-07T11:40:57.684Z,100848.25
2022-10-07T11:43:30.097Z,100842.97
2022-10-07T11:46:07.924Z,100837.72
2022-10-07T11:48:45.912Z,100828.94
2022-10-07T11:51:23.660Z,100828.13
2022-10-07T11:53:55.654Z,100813.28
2022-10-07T11:56:27.229Z,100804.66
2022-10-07T11:59:02.536Z,100806.66
2022-10-07T12:01:48.075Z,100799.78
2022-10-07T12:04:47.649Z,100789.41
2022-10-07T12:07:36.813Z,100787.84
2022-10-07T12:10:32.411Z,100773.00
2022-10-07T12:13:22.909Z,100777.53
2022-10-07T12:15:53.260Z,100768.78
2022-10-07T12:18:29.012Z,100771.50
2022-10-07T12:21:07.326Z,100760.06
2022-10-07T12:23:43.435Z,100763.63
2022-10-07T12:26:49.225Z,100746.91
2022-10-07T12:29:31.083Z,100752.19
2022-10-07T12:32:01.219Z,100752.16
2022-10-07T12:34:36.451Z,100750.44
2022-10-07T12:37:42.350Z,100735.44
2022-10-07T12:40:17.552Z,100730.19
2022-10-07T12:42:54.456Z,100732.00
2022-10-07T12:45:26.961Z,100720.53
2022-10-07T12:48:01.454Z,100710.84
2022-10-07T12:50:33.522Z,100719.75
2022-10-07T12:53:03.841Z,100710.00
2022-10-07T12:55:37.025Z,100704.69
2022-10-07T12:58:34.641Z,100693.25
2022-10-07T13:01:21.655Z,100689.69
2022-10-07T13:04:06.947Z,100684.41
2022-10-07T13:06:59.952Z,100666.66
2022-10-07T13:09:54.495Z,100670.22
2022-10-07T13:12:33.896Z,100668.41
2022-10-07T13:15:15.207Z,100668.38
2022-10-07T13:17:50.676Z,100663.91
2022-10-07T13:20:41.496Z,100657.66
2022-10-07T13:23:17.761Z,100662.09
2022-10-07T13:25:53.026Z,100656.72
2022-10-07T13:28:23.908Z,100648.72
2022-10-07T13:30:53.869Z,100652.19
2022-10-07T13:33:29.134Z,100641.50
2022-10-07T13:36:15.798Z,100644.06
2022-10-07T13:38:46.245Z,100638.72
2022-10-07T13:41:29.400Z,100635.97
2022-10-07T13:44:03.260Z,100633.31
2022-10-07T13:46:35.118Z,100626.22
2022-10-07T13:49:04.362Z,100625.34
2022-10-07T13:51:36.495Z,100618.34
2022-10-07T13:54:07.786Z,100612.16
2022-10-07T13:56:40.553Z,100620.97
2022-10-07T13:59:15.892Z,100611.19
2022-10-07T14:01:45.163Z,100602.25
2022-10-07T14:04:24.952Z,100593.31
2022-10-07T14:06:58.803Z,100593.31
2022-10-07T14:09:43.304Z,100587.91
2022-10-07T14:12:16.876Z,100584.25
2022-10-07T14:14:49.855Z,100577.94
2022-10-07T14:17:28.298Z,100577.81
2022-10-07T14:20:00.116Z,100578.66
2022-10-07T14:22:34.914Z,100575.09
2022-10-07T14:25:06.908Z,100569.63
2022-10-07T14:27:55.095Z,100568.72
2022-10-07T14:30:56.118Z,100562.50
2022-10-07T14:33:48.134Z,100560.91
2022-10-07T14:36:18.258Z,100553.00
2022-10-07T14:38:49.760Z,100552.16
2022-10-07T14:41:20.025Z,100548.72
2022-10-07T14:43:51.757Z,100547.81
2022-10-07T14:46:22.739Z,100533.50
2022-10-07T14:48:52.287Z,100545.75
2022-10-07T14:51:23.115Z,100537.69
2022-10-07T14:53:55.778Z,100538.63
2022-10-07T14:56:26.828Z,100529.88
2022-10-07T14:58:56.283Z,100529.88
2022-10-07T15:01:24.916Z,100542.22
2022-10-07T15:03:53.450Z,100525.19
2022-10-07T15:06:21.888Z,100530.38
2022-10-07T15:08:50.538Z,100523.22
2022-10-07T15:11:22.064Z,100512.47
2022-10-07T15:13:50.919Z,100507.97
2022-10-07T15:16:21.362Z,100508.94
2022-10-07T15:18:53.493Z,100501.09
2022-10-07T15:21:23.248Z,100495.72
2022-10-07T15:23:53.001Z,100499.22
2022-10-07T15:26:24.281Z,100505.41
2022-10-07T15:28:55.004Z,100490.28
2022-10-07T15:31:25.972Z,100486.63
2022-10-07T15:33:57.095Z,100481.41
2022-10-07T15:36:26.755Z,100472.56
2022-10-07T15:38:55.644Z,100478.75
2022-10-07T15:41:52.082Z,100475.38
2022-10-07T15:44:25.307Z,100466.59
2022-10-07T15:46:54.741Z,100471.25
2022-10-07T15:49:23.214Z,100471.47
2022-10-07T15:51:51.932Z,100467.16
2022-10-07T15:54:20.767Z,100462.84
2022-10-07T15:56:50.179Z,100469.19
2022-10-07T15:59:18.843Z,100456.00
2022-10-07T16:01:51.392Z,100473.88
2022-10-07T16:04:20.505Z,100466.91
2022-10-07T16:06:51.588Z,100460.84
2022-10-07T16:09:21.296Z,100460.06
2022-10-07T16:11:49.938Z,100458.41
2022-10-07T16:14:18.517Z,100452.28
2022-10-07T16:16:48.197Z,100454.16
2022-10-07T16:19:16.494Z,100451.50
2022-10-07T16:21:44.940Z,100448.03
2022-10-07T16:24:15.877Z,100447.22
2022-10-07T16:26:45.212Z,100443.72
2022-10-07T16:29:33.714Z,100443.75
2022-10-07T16:32:04.365Z,100444.66
2022-10-07T16:34:33.641Z,100442.94
2022-10-07T16:37:02.280Z,100447.31
2022-10-07T16:39:32.601Z,100441.13
2022-10-07T16:42:01.100Z,100448.19
2022-10-07T16:44:30.039Z,100435.84
2022-10-07T16:46:59.127Z,100440.22
2022-10-07T16:49:30.263Z,100434.91
2022-10-07T16:51:59.455Z,100437.53
2022-10-07T16:54:29.786Z,100435.69
2022-10-07T16:56:58.438Z,100433.88
2022-10-07T16:59:27.354Z,100433.81
2022-10-07T17:02:00.018Z,100439.91
2022-10-07T17:04:29.833Z,100440.75
2022-10-07T17:06:58.290Z,100434.53
2022-10-07T17:09:26.658Z,100438.84
2022-10-07T17:11:55.325Z,100438.78
2022-10-07T17:14:24.216Z,100442.22
2022-10-07T17:16:56.389Z,100445.63
2022-10-07T17:19:26.589Z,100442.03
2022-10-07T17:21:59.207Z,100439.25
2022-10-07T17:24:27.930Z,100443.53
2022-10-07T17:26:56.359Z,100446.94
2022-10-07T17:29:26.078Z,100442.44
2022-10-07T17:31:55.050Z,100446.72
2022-10-07T17:34:24.173Z,100443.94
2022-10-07T17:36:52.825Z,100444.63
2022-10-07T17:39:24.105Z,100450.72
2022-10-07T17:41:53.068Z,100450.59
2022-10-07T17:44:21.673Z,100446.97
2022-10-07T17:46:50.260Z,100446.00
2022-10-07T17:49:18.876Z,100447.63
2022-10-07T17:51:47.270Z,100447.47
2022-10-07T17:54:15.848Z,100451.78
2022-10-07T17:56:47.445Z,100448.16
2022-10-07T17:59:16.262Z,100441.84
2022-10-07T18:01:45.463Z,100446.09
2022-10-07T18:04:19.883Z,100443.31
2022-10-07T18:06:51.029Z,100454.59
2022-10-07T18:09:19.469Z,100453.63
2022-10-07T18:12:07.003Z,100453.47
2022-10-07T18:14:54.329Z,100457.78
2022-10-07T18:17:24.504Z,100449.75
2022-10-07T18:19:53.333Z,100447.91
2022-10-07T18:22:21.942Z,100453.97
2022-10-07T18:24:50.574Z,100450.41
2022-10-07T18:27:26.795Z,100438.03
2022-10-07T18:29:55.852Z,100436.16
2022-10-07T18:32:25.417Z,100442.22
2022-10-07T18:34:53.751Z,100437.72
2022-10-07T18:37:23.527Z,100439.31
2022-10-07T18:39:52.192Z,100438.34
2022-10-07T18:42:21.887Z,100436.53
2022-10-07T18:44:52.239Z,100431.13
2022-10-07T18:47:20.955Z,100424.88
2022-10-07T18:49:49.340Z,100434.38
2022-10-07T18:52:18.049Z,100426.38
2022-10-07T18:54:46.431Z,100434.19
2022-10-07T18:57:14.727Z,100425.31
2022-10-07T18:59:44.404Z,100434.84
2022-10-07T19:02:13.091Z,100427.69
2022-10-07T19:04:41.483Z,100438.09
2022-10-07T19:07:09.856Z,100429.19
2022-10-07T19:09:38.299Z,100437.84
2022-10-07T19:12:27.337Z,100437.75
2022-10-07T19:14:56.313Z,100434.97
2022-10-07T19:17:24.941Z,100433.97
2022-10-07T19:19:53.489Z,100432.16
2022-10-07T19:22:25.424Z,100433.84
2022-10-07T19:25:11.515Z,100427.63
2022-10-07T19:27:39.951Z,100426.69
2022-10-07T19:30:11.015Z,100438.00
2022-10-07T19:32:39.297Z,100426.50
2022-10-07T19:35:08.081Z,100426.44
2022-10-07T19:37:36.420Z,100434.16
2022-10-07T19:40:05.080Z,100426.16
2022-10-07T19:42:33.441Z,100426.03
2022-10-07T19:45:02.069Z,100424.19
2022-10-07T19:47:35.217Z,100430.19
2022-10-07T19:50:03.756Z,100424.75
2022-10-07T19:52:32.114Z,100428.19
2022-10-07T19:55:01.427Z,100428.94
2022-10-07T19:57:29.783Z,100433.19
2022-10-07T19:59:58.383Z,100421.75
2022-10-07T20:02:26.757Z,100429.50
2022-10-07T20:04:57.249Z,100432.00
2022-10-07T20:07:25.661Z,100425.75
2022-10-07T20:09:54.009Z,100432.63
2022-10-07T20:12:22.315Z,100428.13
2022-10-07T20:14:51.203Z,100429.75
2022-10-07T20:17:20.019Z,100430.53
2022-10-07T20:19:48.355Z,100429.50
2022-10-07T20:22:18.052Z,100431.06
2022-10-07T20:24:46.377Z,100418.69
2022-10-07T20:27:14.727Z,100429.91
2022-10-07T20:32:36.450Z,100432.25
2022-10-07T20:35:10.574Z,100432.09
2022-10-07T20:37:39.392Z,100435.47
2022-10-07T20:40:25.825Z,100431.84
2022-10-07T20:42:55.563Z,100432.56
2022-10-07T20:45:23.866Z,100432.50
2022-10-07T20:47:55.856Z,100439.41
2022-10-07T20:50:24.170Z,100443.66
2022-10-07T20:52:52.501Z,100434.75
2022-10-07T20:55:21.159Z,100438.16
2022-10-07T20:57:50.165Z,100436.28
2022-10-07T21:00:18.997Z,100436.19
2022-10-07T21:02:47.571Z,100436.13
2022-10-07T21:05:17.509Z,100441.34
2022-10-07T21:07:45.874Z,100434.22
2022-10-07T21:10:14.386Z,100435.91
2022-10-07T21:12:44.608Z,100438.47
2022-10-07T21:15:13.187Z,100433.22
2022-10-07T21:17:44.386Z,100433.16
2022-10-07T21:20:12.753Z,100430.50
2022-10-07T21:22:42.431Z,100425.25
2022-10-07T21:25:11.860Z,100422.66
2022-10-07T21:27:40.233Z,100413.00
2022-10-07T21:30:10.355Z,100416.47
2022-10-07T21:32:38.736Z,100413.78
2022-10-07T21:35:07.841Z,100410.28
2022-10-07T21:37:36.218Z,100418.13
2022-10-07T21:40:06.615Z,100411.16
2022-10-07T21:42:34.950Z,100405.03
2022-10-07T21:45:03.449Z,100405.00
2022-10-07T21:47:31.832Z,100403.22
2022-10-07T21:50:00.208Z,100408.47
2022-10-07T21:52:29.355Z,100404.97
2022-10-07T21:54:57.680Z,100407.59
2022-10-07T21:57:27.494Z,100399.66
2022-10-07T21:59:55.808Z,100398.78
2022-10-07T22:02:24.177Z,100398.78
2022-10-07T22:04:52.578Z,100394.44
2022-10-07T22:07:38.470Z,100401.41
2022-10-07T22:10:08.000Z,100389.16
2022-10-07T22:12:37.666Z,100386.53
2022-10-07T22:15:06.945Z,100394.41
2022-10-07T22:17:35.425Z,100386.53
2022-10-07T22:20:05.549Z,100389.16
2022-10-07T22:22:34.062Z,100376.88
2022-10-07T22:25:28.018Z,100375.13
2022-10-07T22:27:57.957Z,100381.19
2022-10-07T22:30:26.392Z,100374.19
2022-10-07T22:32:54.854Z,100374.19
2022-10-07T22:35:30.194Z,100372.41
2022-10-07T22:37:59.244Z,100368.00
2022-10-07T22:40:28.519Z,100368.88
2022-10-07T22:42:58.268Z,100370.53
2022-10-07T22:45:26.617Z,100370.50
2022-10-07T22:47:54.947Z,100360.81
2022-10-07T22:50:23.276Z,100362.50
2022-10-07T22:52:51.581Z,100365.97
2022-10-07T22:55:21.219Z,100359.78
2022-10-07T22:57:49.699Z,100366.69
2022-10-07T23:00:19.994Z,100363.25
2022-10-07T23:02:48.519Z,100361.47
2022-10-07T23:05:17.322Z,100366.69
2022-10-07T23:07:45.679Z,100364.06
2022-10-07T23:10:14.127Z,100357.03
2022-10-07T23:12:42.647Z,100358.75
2022-10-07T23:15:11.693Z,100363.94
2022-10-07T23:17:41.360Z,100356.06
2022-10-07T23:20:09.916Z,100361.28
2022-10-07T23:22:40.028Z,100360.41
2022-10-07T23:25:09.156Z,100350.75
2022-10-07T23:27:39.717Z,100350.81
2022-10-07T23:30:10.041Z,100341.22
2022-10-07T23:32:38.481Z,100343.78
2022-10-07T23:35:09.485Z,100349.88
2022-10-07T23:37:37.799Z,100345.50
2022-10-07T23:40:07.386Z,100339.34
2022-10-07T23:42:36.708Z,100337.66
2022-10-07T23:45:05.783Z,100335.84
2022-10-07T23:47:34.093Z,100348.06
2022-10-07T23:50:02.507Z,100347.19
2022-10-07T23:52:32.331Z,100341.94
2022-10-07T23:55:00.740Z,100335.81
2022-10-07T23:57:29.055Z,100341.94
2022-10-07T23:59:57.413Z,100330.59
